sensor_id;sensor_type;location;lat;lon;timestamp;P1;durP1;ratioP1;P2;durP2;ratioP2
7074;SDS011;3578;51.568;6.932;2023-04-23T00:00:16;57.20;;;43.00;;
7074;SDS011;3578;51.568;6.932;2023-04-23T00:02:44;54.03;;;40.80;;
7074;SDS011;3578;51.568;6.932;2023-04-23T00:05:19;53.73;;;41.37;;
7074;SDS011;3578;51.568;6.932;2023-04-23T00:07:47;61.30;;;45.03;;
7074;SDS011;3578;51.568;6.932;2023-04-23T00:10:14;54.07;;;41.20;;
7074;SDS011;3578;51.568;6.932;2023-04-23T00:12:42;57.17;;;41.67;;
7074;SDS011;3578;51.568;6.932;2023-04-23T00:15:10;56.40;;;42.00;;
7074;SDS011;3578;51.568;6.932;2023-04-23T00:17:39;60.07;;;42.57;;
7074;SDS011;3578;51.568;6.932;2023-04-23T00:20:06;59.27;;;41.77;;
7074;SDS011;3578;51.568;6.932;2023-04-23T00:22:35;67.17;;;44.40;;
7074;SDS011;3578;51.568;6.932;2023-04-23T00:25:03;65.43;;;45.87;;
7074;SDS011;3578;51.568;6.932;2023-04-23T00:27:31;61.73;;;43.97;;
7074;SDS011;3578;51.568;6.932;2023-04-23T00:29:57;66.43;;;47.27;;
7074;SDS011;3578;51.568;6.932;2023-04-23T00:32:24;66.93;;;48.17;;
7074;SDS011;3578;51.568;6.932;2023-04-23T00:34:51;72.90;;;48.70;;
7074;SDS011;3578;51.568;6.932;2023-04-23T00:37:19;67.73;;;49.43;;
7074;SDS011;3578;51.568;6.932;2023-04-23T00:39:47;70.77;;;46.93;;
7074;SDS011;3578;51.568;6.932;2023-04-23T00:42:14;68.13;;;47.30;;
7074;SDS011;3578;51.568;6.932;2023-04-23T00:44:42;60.40;;;44.93;;
7074;SDS011;3578;51.568;6.932;2023-04-23T00:47:09;63.10;;;45.67;;
7074;SDS011;3578;51.568;6.932;2023-04-23T00:49:36;60.20;;;41.77;;
7074;SDS011;3578;51.568;6.932;2023-04-23T00:52:04;59.97;;;43.90;;
7074;SDS011;3578;51.568;6.932;2023-04-23T00:54:31;65.50;;;44.70;;
7074;SDS011;3578;51.568;6.932;2023-04-23T00:56:59;73.40;;;48.10;;
7074;SDS011;3578;51.568;6.932;2023-04-23T00:59:27;68.97;;;49.63;;
7074;SDS011;3578;51.568;6.932;2023-04-23T01:01:55;68.30;;;49.60;;
7074;SDS011;3578;51.568;6.932;2023-04-23T01:04:23;69.97;;;48.70;;
7074;SDS011;3578;51.568;6.932;2023-04-23T01:06:53;63.30;;;45.10;;
7074;SDS011;3578;51.568;6.932;2023-04-23T01:09:20;66.53;;;47.53;;
7074;SDS011;3578;51.568;6.932;2023-04-23T01:11:48;69.00;;;48.50;;
7074;SDS011;3578;51.568;6.932;2023-04-23T01:14:18;65.30;;;46.80;;
7074;SDS011;3578;51.568;6.932;2023-04-23T01:16:46;70.17;;;47.77;;
7074;SDS011;3578;51.568;6.932;2023-04-23T01:19:13;70.50;;;47.97;;
7074;SDS011;3578;51.568;6.932;2023-04-23T01:21:40;67.10;;;45.77;;
7074;SDS011;3578;51.568;6.932;2023-04-23T01:24:09;66.70;;;49.33;;
7074;SDS011;3578;51.568;6.932;2023-04-23T01:26:37;67.30;;;46.93;;
7074;SDS011;3578;51.568;6.932;2023-04-23T01:29:05;59.50;;;43.13;;
7074;SDS011;3578;51.568;6.932;2023-04-23T01:31:32;64.53;;;46.27;;
7074;SDS011;3578;51.568;6.932;2023-04-23T01:34:00;63.60;;;45.67;;
7074;SDS011;3578;51.568;6.932;2023-04-23T01:36:27;62.33;;;46.10;;
7074;SDS011;3578;51.568;6.932;2023-04-23T01:38:55;60.77;;;44.80;;
7074;SDS011;3578;51.568;6.932;2023-04-23T01:41:23;63.70;;;46.50;;
7074;SDS011;3578;51.568;6.932;2023-04-23T01:43:50;70.40;;;44.63;;
7074;SDS011;3578;51.568;6.932;2023-04-23T01:46:18;57.77;;;42.37;;
7074;SDS011;3578;51.568;6.932;2023-04-23T01:48:46;69.67;;;48.90;;
7074;SDS011;3578;51.568;6.932;2023-04-23T01:51:13;65.57;;;46.47;;
7074;SDS011;3578;51.568;6.932;2023-04-23T01:53:40;68.60;;;47.93;;
7074;SDS011;3578;51.568;6.932;2023-04-23T01:56:07;73.63;;;49.97;;
7074;SDS011;3578;51.568;6.932;2023-04-23T01:58:36;68.77;;;47.50;;
7074;SDS011;3578;51.568;6.932;2023-04-23T02:01:04;68.23;;;44.77;;
7074;SDS011;3578;51.568;6.932;2023-04-23T02:03:31;59.90;;;44.77;;
7074;SDS011;3578;51.568;6.932;2023-04-23T02:05:58;71.53;;;49.40;;
7074;SDS011;3578;51.568;6.932;2023-04-23T02:08:26;73.30;;;49.30;;
7074;SDS011;3578;51.568;6.932;2023-04-23T02:10:53;63.83;;;45.43;;
7074;SDS011;3578;51.568;6.932;2023-04-23T02:13:20;69.03;;;45.30;;
7074;SDS011;3578;51.568;6.932;2023-04-23T02:15:48;61.73;;;44.97;;
7074;SDS011;3578;51.568;6.932;2023-04-23T02:18:15;57.67;;;43.70;;
7074;SDS011;3578;51.568;6.932;2023-04-23T02:20:42;65.40;;;45.80;;
7074;SDS011;3578;51.568;6.932;2023-04-23T02:23:09;72.47;;;45.40;;
7074;SDS011;3578;51.568;6.932;2023-04-23T02:25:37;66.00;;;45.70;;
7074;SDS011;3578;51.568;6.932;2023-04-23T02:28:04;65.10;;;46.70;;
7074;SDS011;3578;51.568;6.932;2023-04-23T02:30:32;67.20;;;45.70;;
7074;SDS011;3578;51.568;6.932;2023-04-23T02:33:00;66.67;;;46.80;;
7074;SDS011;3578;51.568;6.932;2023-04-23T02:35:27;63.40;;;45.07;;
7074;SDS011;3578;51.568;6.932;2023-04-23T02:37:55;64.60;;;45.03;;
7074;SDS011;3578;51.568;6.932;2023-04-23T02:40:22;56.23;;;42.13;;
7074;SDS011;3578;51.568;6.932;2023-04-23T02:42:49;60.63;;;43.70;;
7074;SDS011;3578;51.568;6.932;2023-04-23T02:45:16;56.67;;;39.90;;
7074;SDS011;3578;51.568;6.932;2023-04-23T02:47:43;52.47;;;38.63;;
7074;SDS011;3578;51.568;6.932;2023-04-23T02:50:11;51.33;;;36.90;;
7074;SDS011;3578;51.568;6.932;2023-04-23T02:52:38;53.27;;;38.17;;
7074;SDS011;3578;51.568;6.932;2023-04-23T02:55:06;60.37;;;42.27;;
7074;SDS011;3578;51.568;6.932;2023-04-23T02:57:34;53.57;;;40.57;;
7074;SDS011;3578;51.568;6.932;2023-04-23T03:00:03;62.07;;;43.47;;
7074;SDS011;3578;51.568;6.932;2023-04-23T03:02:31;56.63;;;41.00;;
7074;SDS011;3578;51.568;6.932;2023-04-23T03:04:58;54.63;;;40.40;;
7074;SDS011;3578;51.568;6.932;2023-04-23T03:07:28;48.53;;;37.73;;
7074;SDS011;3578;51.568;6.932;2023-04-23T03:09:55;53.13;;;41.50;;
7074;SDS011;3578;51.568;6.932;2023-04-23T03:12:22;50.73;;;39.03;;
7074;SDS011;3578;51.568;6.932;2023-04-23T03:14:49;54.27;;;41.20;;
7074;SDS011;3578;51.568;6.932;2023-04-23T03:17:16;50.47;;;38.43;;
7074;SDS011;3578;51.568;6.932;2023-04-23T03:19:43;54.90;;;38.53;;
7074;SDS011;3578;51.568;6.932;2023-04-23T03:22:10;54.80;;;40.17;;
7074;SDS011;3578;51.568;6.932;2023-04-23T03:24:38;51.90;;;37.27;;
7074;SDS011;3578;51.568;6.932;2023-04-23T03:27:05;49.73;;;38.10;;
7074;SDS011;3578;51.568;6.932;2023-04-23T03:29:32;43.43;;;34.13;;
7074;SDS011;3578;51.568;6.932;2023-04-23T03:32:00;50.93;;;39.20;;
7074;SDS011;3578;51.568;6.932;2023-04-23T03:34:28;47.40;;;35.10;;
7074;SDS011;3578;51.568;6.932;2023-04-23T03:36:55;46.80;;;36.10;;
7074;SDS011;3578;51.568;6.932;2023-04-23T03:39:21;41.60;;;32.80;;
7074;SDS011;3578;51.568;6.932;2023-04-23T03:41:50;37.80;;;30.40;;
7074;SDS011;3578;51.568;6.932;2023-04-23T03:44:17;41.73;;;34.60;;
7074;SDS011;3578;51.568;6.932;2023-04-23T03:46:44;34.90;;;30.33;;
7074;SDS011;3578;51.568;6.932;2023-04-23T03:49:11;49.43;;;39.17;;
7074;SDS011;3578;51.568;6.932;2023-04-23T03:51:38;39.53;;;32.03;;
7074;SDS011;3578;51.568;6.932;2023-04-23T03:54:05;55.03;;;41.60;;
7074;SDS011;3578;51.568;6.932;2023-04-23T03:56:32;53.60;;;42.03;;
7074;SDS011;3578;51.568;6.932;2023-04-23T03:59:00;58.37;;;44.37;;
7074;SDS011;3578;51.568;6.932;2023-04-23T04:01:27;50.37;;;40.33;;
7074;SDS011;3578;51.568;6.932;2023-04-23T04:03:56;43.27;;;36.27;;
7074;SDS011;3578;51.568;6.932;2023-04-23T04:06:23;48.60;;;36.37;;
7074;SDS011;3578;51.568;6.932;2023-04-23T04:08:50;41.10;;;32.50;;
7074;SDS011;3578;51.568;6.932;2023-04-23T04:11:17;41.13;;;33.30;;
7074;SDS011;3578;51.568;6.932;2023-04-23T04:13:44;40.90;;;34.47;;
7074;SDS011;3578;51.568;6.932;2023-04-23T04:16:13;46.70;;;35.50;;
7074;SDS011;3578;51.568;6.932;2023-04-23T04:18:40;39.23;;;30.83;;
7074;SDS011;3578;51.568;6.932;2023-04-23T04:21:07;31.20;;;26.97;;
7074;SDS011;3578;51.568;6.932;2023-04-23T04:23:34;37.17;;;30.00;;
7074;SDS011;3578;51.568;6.932;2023-04-23T04:26:01;36.90;;;30.17;;
7074;SDS011;3578;51.568;6.932;2023-04-23T04:28:28;38.43;;;30.47;;
7074;SDS011;3578;51.568;6.932;2023-04-23T04:31:00;36.50;;;28.60;;
7074;SDS011;3578;51.568;6.932;2023-04-23T04:33:28;32.43;;;27.43;;
7074;SDS011;3578;51.568;6.932;2023-04-23T04:35:55;32.67;;;25.80;;
7074;SDS011;3578;51.568;6.932;2023-04-23T04:38:23;34.27;;;28.37;;
7074;SDS011;3578;51.568;6.932;2023-04-23T04:40:53;29.57;;;25.03;;
7074;SDS011;3578;51.568;6.932;2023-04-23T04:43:22;36.10;;;30.03;;
7074;SDS011;3578;51.568;6.932;2023-04-23T04:45:50;36.93;;;28.93;;
7074;SDS011;3578;51.568;6.932;2023-04-23T04:48:17;34.23;;;26.13;;
7074;SDS011;3578;51.568;6.932;2023-04-23T04:50:45;52.43;;;39.63;;
7074;SDS011;3578;51.568;6.932;2023-04-23T04:53:12;40.17;;;30.53;;
7074;SDS011;3578;51.568;6.932;2023-04-23T04:55:40;36.07;;;31.13;;
7074;SDS011;3578;51.568;6.932;2023-04-23T04:58:06;33.40;;;29.60;;
7074;SDS011;3578;51.568;6.932;2023-04-23T05:00:34;35.47;;;30.70;;
7074;SDS011;3578;51.568;6.932;2023-04-23T05:03:01;32.83;;;29.20;;
7074;SDS011;3578;51.568;6.932;2023-04-23T05:05:28;31.73;;;26.73;;
7074;SDS011;3578;51.568;6.932;2023-04-23T05:07:59;32.83;;;27.10;;
7074;SDS011;3578;51.568;6.932;2023-04-23T05:10:26;32.63;;;28.20;;
7074;SDS011;3578;51.568;6.932;2023-04-23T05:12:54;31.90;;;27.63;;
7074;SDS011;3578;51.568;6.932;2023-04-23T05:15:22;32.50;;;28.50;;
7074;SDS011;3578;51.568;6.932;2023-04-23T05:17:49;35.87;;;27.27;;
7074;SDS011;3578;51.568;6.932;2023-04-23T05:20:17;31.67;;;27.50;;
7074;SDS011;3578;51.568;6.932;2023-04-23T05:22:45;28.57;;;24.93;;
7074;SDS011;3578;51.568;6.932;2023-04-23T05:25:14;32.13;;;26.90;;
7074;SDS011;3578;51.568;6.932;2023-04-23T05:27:41;36.47;;;30.73;;
7074;SDS011;3578;51.568;6.932;2023-04-23T05:30:09;35.17;;;31.27;;
7074;SDS011;3578;51.568;6.932;2023-04-23T05:32:36;33.17;;;29.63;;
7074;SDS011;3578;51.568;6.932;2023-04-23T05:35:04;30.20;;;26.80;;
7074;SDS011;3578;51.568;6.932;2023-04-23T05:37:32;31.43;;;28.03;;
7074;SDS011;3578;51.568;6.932;2023-04-23T05:39:58;28.23;;;25.13;;
7074;SDS011;3578;51.568;6.932;2023-04-23T05:42:27;32.90;;;28.73;;
7074;SDS011;3578;51.568;6.932;2023-04-23T05:44:54;31.50;;;28.10;;
7074;SDS011;3578;51.568;6.932;2023-04-23T05:47:21;34.00;;;29.00;;
7074;SDS011;3578;51.568;6.932;2023-04-23T05:49:48;31.57;;;25.70;;
7074;SDS011;3578;51.568;6.932;2023-04-23T05:52:15;35.17;;;29.37;;
7074;SDS011;3578;51.568;6.932;2023-04-23T05:54:43;35.93;;;31.37;;
7074;SDS011;3578;51.568;6.932;2023-04-23T05:57:10;34.43;;;30.73;;
7074;SDS011;3578;51.568;6.932;2023-04-23T05:59:38;36.03;;;31.10;;
7074;SDS011;3578;51.568;6.932;2023-04-23T06:02:05;31.47;;;27.10;;
7074;SDS011;3578;51.568;6.932;2023-04-23T06:04:33;36.60;;;30.20;;
7074;SDS011;3578;51.568;6.932;2023-04-23T06:07:00;32.93;;;29.30;;
7074;SDS011;3578;51.568;6.932;2023-04-23T06:09:27;29.33;;;26.13;;
7074;SDS011;3578;51.568;6.932;2023-04-23T06:11:54;29.20;;;26.10;;
7074;SDS011;3578;51.568;6.932;2023-04-23T06:14:21;30.87;;;26.40;;
7074;SDS011;3578;51.568;6.932;2023-04-23T06:16:50;30.27;;;26.37;;
7074;SDS011;3578;51.568;6.932;2023-04-23T06:19:17;28.83;;;25.83;;
7074;SDS011;3578;51.568;6.932;2023-04-23T06:21:43;28.60;;;25.60;;
7074;SDS011;3578;51.568;6.932;2023-04-23T06:24:11;27.30;;;24.20;;
7074;SDS011;3578;51.568;6.932;2023-04-23T06:26:38;28.33;;;24.40;;
7074;SDS011;3578;51.568;6.932;2023-04-23T06:29:04;27.10;;;24.03;;
7074;SDS011;3578;51.568;6.932;2023-04-23T06:31:31;25.37;;;22.73;;
7074;SDS011;3578;51.568;6.932;2023-04-23T06:34:00;23.53;;;21.23;;
7074;SDS011;3578;51.568;6.932;2023-04-23T06:36:27;22.77;;;20.37;;
7074;SDS011;3578;51.568;6.932;2023-04-23T06:38:54;25.00;;;20.70;;
7074;SDS011;3578;51.568;6.932;2023-04-23T06:41:21;21.90;;;19.70;;
7074;SDS011;3578;51.568;6.932;2023-04-23T06:43:48;21.27;;;19.17;;
7074;SDS011;3578;51.568;6.932;2023-04-23T06:46:15;19.83;;;17.83;;
7074;SDS011;3578;51.568;6.932;2023-04-23T06:48:42;18.27;;;16.63;;
7074;SDS011;3578;51.568;6.932;2023-04-23T06:51:10;18.50;;;16.60;;
7074;SDS011;3578;51.568;6.932;2023-04-23T06:53:37;22.53;;;17.07;;
7074;SDS011;3578;51.568;6.932;2023-04-23T06:56:04;17.13;;;15.53;;
7074;SDS011;3578;51.568;6.932;2023-04-23T06:58:31;18.60;;;14.83;;
7074;SDS011;3578;51.568;6.932;2023-04-23T07:00:58;17.20;;;15.30;;
7074;SDS011;3578;51.568;6.932;2023-04-23T07:03:28;22.00;;;16.40;;
7074;SDS011;3578;51.568;6.932;2023-04-23T07:05:55;16.73;;;15.13;;
7074;SDS011;3578;51.568;6.932;2023-04-23T07:08:24;16.63;;;14.93;;
7074;SDS011;3578;51.568;6.932;2023-04-23T07:10:51;17.40;;;15.63;;
7074;SDS011;3578;51.568;6.932;2023-04-23T07:13:18;15.33;;;13.83;;
7074;SDS011;3578;51.568;6.932;2023-04-23T07:15:45;14.87;;;13.43;;
7074;SDS011;3578;51.568;6.932;2023-04-23T07:18:13;15.53;;;14.03;;
7074;SDS011;3578;51.568;6.932;2023-04-23T07:20:40;15.60;;;14.03;;
7074;SDS011;3578;51.568;6.932;2023-04-23T07:23:07;14.57;;;12.67;;
7074;SDS011;3578;51.568;6.932;2023-04-23T07:25:35;11.80;;;10.50;;
7074;SDS011;3578;51.568;6.932;2023-04-23T07:28:02;10.10;;;9.20;;
7074;SDS011;3578;51.568;6.932;2023-04-23T07:30:29;10.47;;;9.47;;
7074;SDS011;3578;51.568;6.932;2023-04-23T07:32:56;10.27;;;9.20;;
7074;SDS011;3578;51.568;6.932;2023-04-23T07:35:23;9.30;;;8.40;;
7074;SDS011;3578;51.568;6.932;2023-04-23T07:37:50;9.43;;;8.33;;
7074;SDS011;3578;51.568;6.932;2023-04-23T07:40:20;8.40;;;7.60;;
7074;SDS011;3578;51.568;6.932;2023-04-23T07:42:49;9.23;;;7.53;;
7074;SDS011;3578;51.568;6.932;2023-04-23T07:45:16;7.90;;;7.20;;
7074;SDS011;3578;51.568;6.932;2023-04-23T07:47:44;7.67;;;6.97;;
7074;SDS011;3578;51.568;6.932;2023-04-23T07:50:11;10.63;;;7.40;;
7074;SDS011;3578;51.568;6.932;2023-04-23T07:52:38;12.67;;;5.93;;
7074;SDS011;3578;51.568;6.932;2023-04-23T07:55:06;6.50;;;5.90;;
7074;SDS011;3578;51.568;6.932;2023-04-23T07:57:34;9.00;;;6.20;;
7074;SDS011;3578;51.568;6.932;2023-04-23T08:00:03;7.00;;;5.80;;
7074;SDS011;3578;51.568;6.932;2023-04-23T08:02:33;8.00;;;5.67;;
7074;SDS011;3578;51.568;6.932;2023-04-23T08:05:00;6.50;;;5.80;;
7074;SDS011;3578;51.568;6.932;2023-04-23T08:07:27;8.03;;;5.67;;
7074;SDS011;3578;51.568;6.932;2023-04-23T08:09:54;9.40;;;5.90;;
7074;SDS011;3578;51.568;6.932;2023-04-23T08:12:26;8.60;;;6.20;;
7074;SDS011;3578;51.568;6.932;2023-04-23T08:14:54;7.50;;;5.27;;
7074;SDS011;3578;51.568;6.932;2023-04-23T08:17:23;7.70;;;5.50;;
7074;SDS011;3578;51.568;6.932;2023-04-23T08:19:50;6.90;;;5.30;;
7074;SDS011;3578;51.568;6.932;2023-04-23T08:22:17;6.40;;;5.77;;
7074;SDS011;3578;51.568;6.932;2023-04-23T08:24:44;5.30;;;4.80;;
7074;SDS011;3578;51.568;6.932;2023-04-23T08:27:11;5.83;;;5.27;;
7074;SDS011;3578;51.568;6.932;2023-04-23T08:29:38;13.03;;;6.00;;
7074;SDS011;3578;51.568;6.932;2023-04-23T08:32:07;5.80;;;4.60;;
7074;SDS011;3578;51.568;6.932;2023-04-23T08:34:35;8.23;;;5.13;;
7074;SDS011;3578;51.568;6.932;2023-04-23T08:37:02;6.93;;;4.70;;
7074;SDS011;3578;51.568;6.932;2023-04-23T08:39:31;7.87;;;4.70;;
7074;SDS011;3578;51.568;6.932;2023-04-23T08:42:02;5.20;;;4.17;;
7074;SDS011;3578;51.568;6.932;2023-04-23T08:44:36;5.30;;;4.30;;
7074;SDS011;3578;51.568;6.932;2023-04-23T08:47:06;5.57;;;3.80;;
7074;SDS011;3578;51.568;6.932;2023-04-23T08:49:36;6.70;;;4.87;;
7074;SDS011;3578;51.568;6.932;2023-04-23T08:52:14;4.80;;;3.20;;
7074;SDS011;3578;51.568;6.932;2023-04-23T08:54:44;3.30;;;2.90;;
7074;SDS011;3578;51.568;6.932;2023-04-23T08:57:14;5.43;;;3.77;;
7074;SDS011;3578;51.568;6.932;2023-04-23T08:59:43;4.40;;;3.93;;
7074;SDS011;3578;51.568;6.932;2023-04-23T09:02:11;4.13;;;3.47;;
7074;SDS011;3578;51.568;6.932;2023-04-23T09:04:41;6.30;;;3.60;;
7074;SDS011;3578;51.568;6.932;2023-04-23T09:07:10;5.83;;;3.03;;
7074;SDS011;3578;51.568;6.932;2023-04-23T09:09:39;3.50;;;2.50;;
7074;SDS011;3578;51.568;6.932;2023-04-23T09:12:07;4.40;;;2.87;;
7074;SDS011;3578;51.568;6.932;2023-04-23T09:14:35;3.37;;;3.07;;
7074;SDS011;3578;51.568;6.932;2023-04-23T09:17:02;4.70;;;2.37;;
7074;SDS011;3578;51.568;6.932;2023-04-23T09:19:29;5.40;;;2.23;;
7074;SDS011;3578;51.568;6.932;2023-04-23T09:21:58;7.67;;;3.20;;
7074;SDS011;3578;51.568;6.932;2023-04-23T09:24:26;3.70;;;2.47;;
7074;SDS011;3578;51.568;6.932;2023-04-23T09:26:54;5.63;;;2.80;;
7074;SDS011;3578;51.568;6.932;2023-04-23T09:29:23;7.67;;;3.00;;
7074;SDS011;3578;51.568;6.932;2023-04-23T09:31:51;7.53;;;2.80;;
7074;SDS011;3578;51.568;6.932;2023-04-23T09:34:22;5.83;;;2.33;;
7074;SDS011;3578;51.568;6.932;2023-04-23T09:36:50;2.87;;;2.33;;
7074;SDS011;3578;51.568;6.932;2023-04-23T09:39:21;2.40;;;2.20;;
7074;SDS011;3578;51.568;6.932;2023-04-23T09:41:49;6.30;;;2.70;;
7074;SDS011;3578;51.568;6.932;2023-04-23T09:44:18;5.13;;;2.20;;
7074;SDS011;3578;51.568;6.932;2023-04-23T09:46:47;3.97;;;2.73;;
7074;SDS011;3578;51.568;6.932;2023-04-23T09:49:14;4.87;;;2.60;;
7074;SDS011;3578;51.568;6.932;2023-04-23T09:51:42;4.77;;;3.10;;
7074;SDS011;3578;51.568;6.932;2023-04-23T09:54:11;4.80;;;2.63;;
7074;SDS011;3578;51.568;6.932;2023-04-23T09:56:41;4.27;;;2.97;;
7074;SDS011;3578;51.568;6.932;2023-04-23T09:59:18;4.33;;;2.73;;
7074;SDS011;3578;51.568;6.932;2023-04-23T10:01:47;5.63;;;2.67;;
7074;SDS011;3578;51.568;6.932;2023-04-23T10:04:16;3.17;;;2.83;;
7074;SDS011;3578;51.568;6.932;2023-04-23T10:06:45;6.33;;;2.50;;
7074;SDS011;3578;51.568;6.932;2023-04-23T10:09:13;4.50;;;2.30;;
7074;SDS011;3578;51.568;6.932;2023-04-23T10:11:41;6.00;;;2.20;;
7074;SDS011;3578;51.568;6.932;2023-04-23T10:14:09;4.93;;;2.67;;
7074;SDS011;3578;51.568;6.932;2023-04-23T10:16:37;5.70;;;2.60;;
7074;SDS011;3578;51.568;6.932;2023-04-23T10:19:05;3.70;;;2.70;;
7074;SDS011;3578;51.568;6.932;2023-04-23T10:21:36;5.80;;;2.20;;
7074;SDS011;3578;51.568;6.932;2023-04-23T10:24:05;4.40;;;2.30;;
7074;SDS011;3578;51.568;6.932;2023-04-23T10:26:35;6.33;;;2.20;;
7074;SDS011;3578;51.568;6.932;2023-04-23T10:29:05;6.13;;;2.27;;
7074;SDS011;3578;51.568;6.932;2023-04-23T10:31:39;3.60;;;2.20;;
7074;SDS011;3578;51.568;6.932;2023-04-23T10:34:08;5.50;;;2.80;;
7074;SDS011;3578;51.568;6.932;2023-04-23T10:36:36;3.03;;;2.50;;
7074;SDS011;3578;51.568;6.932;2023-04-23T10:39:03;6.33;;;2.60;;
7074;SDS011;3578;51.568;6.932;2023-04-23T10:41:33;4.10;;;2.60;;
7074;SDS011;3578;51.568;6.932;2023-04-23T10:44:02;6.00;;;2.80;;
7074;SDS011;3578;51.568;6.932;2023-04-23T10:46:33;3.50;;;2.40;;
7074;SDS011;3578;51.568;6.932;2023-04-23T10:49:06;3.40;;;2.40;;
7074;SDS011;3578;51.568;6.932;2023-04-23T10:51:38;3.03;;;2.40;;
7074;SDS011;3578;51.568;6.932;2023-04-23T10:54:07;4.37;;;1.80;;
7074;SDS011;3578;51.568;6.932;2023-04-23T10:56:36;3.87;;;2.40;;
7074;SDS011;3578;51.568;6.932;2023-04-23T10:59:05;6.40;;;2.37;;
7074;SDS011;3578;51.568;6.932;2023-04-23T11:01:34;5.60;;;2.20;;
7074;SDS011;3578;51.568;6.932;2023-04-23T11:06:57;4.80;;;2.07;;
7074;SDS011;3578;51.568;6.932;2023-04-23T11:09:31;5.63;;;2.00;;
7074;SDS011;3578;51.568;6.932;2023-04-23T11:12:07;2.63;;;1.87;;
7074;SDS011;3578;51.568;6.932;2023-04-23T11:14:40;2.93;;;2.00;;
7074;SDS011;3578;51.568;6.932;2023-04-23T11:17:14;6.40;;;3.00;;
7074;SDS011;3578;51.568;6.932;2023-04-23T11:22:34;2.33;;;2.10;;
7074;SDS011;3578;51.568;6.932;2023-04-23T11:25:02;3.70;;;2.03;;
7074;SDS011;3578;51.568;6.932;2023-04-23T11:27:33;4.03;;;2.30;;
7074;SDS011;3578;51.568;6.932;2023-04-23T11:30:04;2.30;;;1.77;;
7074;SDS011;3578;51.568;6.932;2023-04-23T11:32:37;3.33;;;1.70;;
7074;SDS011;3578;51.568;6.932;2023-04-23T11:35:06;4.27;;;2.10;;
7074;SDS011;3578;51.568;6.932;2023-04-23T11:37:37;7.20;;;2.63;;
7074;SDS011;3578;51.568;6.932;2023-04-23T11:40:06;6.27;;;2.57;;
7074;SDS011;3578;51.568;6.932;2023-04-23T11:42:39;3.23;;;1.90;;
7074;SDS011;3578;51.568;6.932;2023-04-23T11:45:14;3.30;;;2.00;;
7074;SDS011;3578;51.568;6.932;2023-04-23T11:47:44;2.80;;;1.83;;
7074;SDS011;3578;51.568;6.932;2023-04-23T11:50:18;2.03;;;1.93;;
7074;SDS011;3578;51.568;6.932;2023-04-23T11:52:47;1.70;;;1.27;;
7074;SDS011;3578;51.568;6.932;2023-04-23T11:55:14;1.43;;;1.43;;
7074;SDS011;3578;51.568;6.932;2023-04-23T11:57:42;3.83;;;1.90;;
7074;SDS011;3578;51.568;6.932;2023-04-23T12:00:12;1.40;;;1.30;;
7074;SDS011;3578;51.568;6.932;2023-04-23T12:02:52;1.77;;;1.50;;
7074;SDS011;3578;51.568;6.932;2023-04-23T12:05:21;3.27;;;1.87;;
7074;SDS011;3578;51.568;6.932;2023-04-23T12:07:52;1.80;;;1.50;;
7074;SDS011;3578;51.568;6.932;2023-04-23T12:10:20;2.83;;;1.93;;
7074;SDS011;3578;51.568;6.932;2023-04-23T12:12:48;4.00;;;1.80;;
7074;SDS011;3578;51.568;6.932;2023-04-23T12:15:17;3.73;;;1.60;;
7074;SDS011;3578;51.568;6.932;2023-04-23T12:17:48;5.20;;;1.70;;
7074;SDS011;3578;51.568;6.932;2023-04-23T12:20:18;5.10;;;2.30;;
7074;SDS011;3578;51.568;6.932;2023-04-23T12:22:46;6.30;;;1.93;;
7074;SDS011;3578;51.568;6.932;2023-04-23T12:25:14;4.33;;;1.30;;
7074;SDS011;3578;51.568;6.932;2023-04-23T12:27:42;1.93;;;1.40;;
7074;SDS011;3578;51.568;6.932;2023-04-23T12:30:10;3.53;;;1.70;;
7074;SDS011;3578;51.568;6.932;2023-04-23T12:32:39;2.00;;;1.50;;
7074;SDS011;3578;51.568;6.932;2023-04-23T12:35:06;4.43;;;1.70;;
7074;SDS011;3578;51.568;6.932;2023-04-23T12:37:36;2.33;;;1.43;;
7074;SDS011;3578;51.568;6.932;2023-04-23T12:40:04;1.73;;;1.30;;
7074;SDS011;3578;51.568;6.932;2023-04-23T12:42:33;3.90;;;1.53;;
7074;SDS011;3578;51.568;6.932;2023-04-23T12:45:07;5.80;;;1.37;;
7074;SDS011;3578;51.568;6.932;2023-04-23T12:47:35;2.33;;;1.33;;
7074;SDS011;3578;51.568;6.932;2023-04-23T12:50:02;3.60;;;1.30;;
7074;SDS011;3578;51.568;6.932;2023-04-23T12:52:29;8.03;;;1.30;;
7074;SDS011;3578;51.568;6.932;2023-04-23T12:54:57;1.60;;;1.50;;
7074;SDS011;3578;51.568;6.932;2023-04-23T12:57:25;1.70;;;1.50;;
7074;SDS011;3578;51.568;6.932;2023-04-23T12:59:52;4.10;;;1.13;;
7074;SDS011;3578;51.568;6.932;2023-04-23T13:02:20;2.50;;;1.30;;
7074;SDS011;3578;51.568;6.932;2023-04-23T13:04:48;2.77;;;1.10;;
7074;SDS011;3578;51.568;6.932;2023-04-23T13:07:15;2.93;;;1.60;;
7074;SDS011;3578;51.568;6.932;2023-04-23T13:09:42;5.40;;;1.80;;
7074;SDS011;3578;51.568;6.932;2023-04-23T13:12:10;2.57;;;1.50;;
7074;SDS011;3578;51.568;6.932;2023-04-23T13:14:37;4.70;;;2.00;;
7074;SDS011;3578;51.568;6.932;2023-04-23T13:17:04;8.00;;;1.70;;
7074;SDS011;3578;51.568;6.932;2023-04-23T13:19:32;7.10;;;1.70;;
7074;SDS011;3578;51.568;6.932;2023-04-23T13:22:01;3.27;;;1.97;;
7074;SDS011;3578;51.568;6.932;2023-04-23T13:24:29;2.60;;;1.57;;
7074;SDS011;3578;51.568;6.932;2023-04-23T13:26:56;2.20;;;1.20;;
7074;SDS011;3578;51.568;6.932;2023-04-23T13:29:24;5.17;;;1.67;;
7074;SDS011;3578;51.568;6.932;2023-04-23T13:31:51;1.83;;;1.50;;
7074;SDS011;3578;51.568;6.932;2023-04-23T13:34:18;3.30;;;1.40;;
7074;SDS011;3578;51.568;6.932;2023-04-23T13:36:45;3.87;;;1.53;;
7074;SDS011;3578;51.568;6.932;2023-04-23T13:39:13;4.03;;;1.80;;
7074;SDS011;3578;51.568;6.932;2023-04-23T13:41:40;1.77;;;1.33;;
7074;SDS011;3578;51.568;6.932;2023-04-23T13:44:07;2.23;;;1.20;;
7074;SDS011;3578;51.568;6.932;2023-04-23T13:46:36;4.07;;;1.30;;
7074;SDS011;3578;51.568;6.932;2023-04-23T13:49:04;3.90;;;1.37;;
7074;SDS011;3578;51.568;6.932;2023-04-23T13:51:31;3.47;;;1.27;;
7074;SDS011;3578;51.568;6.932;2023-04-23T13:53:58;1.90;;;1.20;;
7074;SDS011;3578;51.568;6.932;2023-04-23T13:56:25;2.20;;;1.03;;
7074;SDS011;3578;51.568;6.932;2023-04-23T13:58:54;1.53;;;1.10;;
7074;SDS011;3578;51.568;6.932;2023-04-23T14:01:26;1.43;;;1.20;;
7074;SDS011;3578;51.568;6.932;2023-04-23T14:03:55;2.00;;;1.33;;
7074;SDS011;3578;51.568;6.932;2023-04-23T14:06:22;3.90;;;1.40;;
7074;SDS011;3578;51.568;6.932;2023-04-23T14:08:49;6.10;;;1.60;;
7074;SDS011;3578;51.568;6.932;2023-04-23T14:11:16;1.77;;;1.20;;
7074;SDS011;3578;51.568;6.932;2023-04-23T14:13:44;1.40;;;1.30;;
7074;SDS011;3578;51.568;6.932;2023-04-23T14:16:10;1.73;;;1.30;;
7074;SDS011;3578;51.568;6.932;2023-04-23T14:18:37;3.40;;;0.97;;
7074;SDS011;3578;51.568;6.932;2023-04-23T14:21:06;1.83;;;1.20;;
7074;SDS011;3578;51.568;6.932;2023-04-23T14:23:43;3.00;;;1.40;;
7074;SDS011;3578;51.568;6.932;2023-04-23T14:26:20;6.70;;;1.40;;
7074;SDS011;3578;51.568;6.932;2023-04-23T14:28:55;1.43;;;1.10;;
7074;SDS011;3578;51.568;6.932;2023-04-23T14:31:27;8.73;;;1.50;;
7074;SDS011;3578;51.568;6.932;2023-04-23T14:33:54;3.13;;;1.13;;
7074;SDS011;3578;51.568;6.932;2023-04-23T14:36:24;2.60;;;1.20;;
7074;SDS011;3578;51.568;6.932;2023-04-23T14:38:51;4.10;;;1.30;;
7074;SDS011;3578;51.568;6.932;2023-04-23T14:41:18;2.00;;;1.30;;
7074;SDS011;3578;51.568;6.932;2023-04-23T14:43:45;2.13;;;1.27;;
7074;SDS011;3578;51.568;6.932;2023-04-23T14:46:12;3.93;;;1.30;;
7074;SDS011;3578;51.568;6.932;2023-04-23T14:48:39;1.93;;;1.43;;
7074;SDS011;3578;51.568;6.932;2023-04-23T14:51:06;2.10;;;1.23;;
7074;SDS011;3578;51.568;6.932;2023-04-23T14:53:34;1.90;;;1.20;;
7074;SDS011;3578;51.568;6.932;2023-04-23T14:56:01;1.70;;;1.10;;
7074;SDS011;3578;51.568;6.932;2023-04-23T14:58:28;3.10;;;1.33;;
7074;SDS011;3578;51.568;6.932;2023-04-23T15:00:55;4.20;;;1.70;;
7074;SDS011;3578;51.568;6.932;2023-04-23T15:03:22;1.80;;;1.10;;
7074;SDS011;3578;51.568;6.932;2023-04-23T15:05:51;5.87;;;1.63;;
7074;SDS011;3578;51.568;6.932;2023-04-23T15:08:18;1.40;;;1.27;;
7074;SDS011;3578;51.568;6.932;2023-04-23T15:10:47;3.13;;;1.20;;